sensor_id;sensor_type;location;lat;lon;timestamp;P1;durP1;ratioP1;P2;durP2;ratioP2
30896;SDS011;64229;52.246;21.054;2023-05-07T04:24:25;6.45;;;2.80;;
30896;SDS011;64229;52.246;21.054;2023-05-07T04:26:50;5.20;;;2.45;;
30896;SDS011;64229;52.246;21.054;2023-05-07T04:29:16;7.40;;;2.78;;
30896;SDS011;64229;52.246;21.054;2023-05-07T04:31:41;4.53;;;2.58;;
30896;SDS011;64229;52.246;21.054;2023-05-07T04:34:09;7.20;;;3.03;;
30896;SDS011;64229;52.246;21.054;2023-05-07T04:36:36;5.35;;;2.45;;
30896;SDS011;64229;52.246;21.054;2023-05-07T04:39:02;4.38;;;2.67;;
30896;SDS011;64229;52.246;21.054;2023-05-07T04:41:28;5.57;;;2.30;;
30896;SDS011;64229;52.246;21.054;2023-05-07T04:43:53;7.35;;;3.03;;
30896;SDS011;64229;52.246;21.054;2023-05-07T04:46:18;5.38;;;2.70;;
30896;SDS011;64229;52.246;21.054;2023-05-07T04:48:43;5.07;;;2.50;;
30896;SDS011;64229;52.246;21.054;2023-05-07T04:51:09;5.35;;;2.60;;
30896;SDS011;64229;52.246;21.054;2023-05-07T04:53:34;4.97;;;2.53;;
30896;SDS011;64229;52.246;21.054;2023-05-07T04:56:00;3.67;;;2.78;;
30896;SDS011;64229;52.246;21.054;2023-05-07T04:58:25;4.65;;;2.17;;
30896;SDS011;64229;52.246;21.054;2023-05-07T05:00:50;4.22;;;2.38;;
30896;SDS011;64229;52.246;21.054;2023-05-07T05:03:16;6.28;;;2.45;;
30896;SDS011;64229;52.246;21.054;2023-05-07T05:05:42;5.18;;;2.60;;
30896;SDS011;64229;52.246;21.054;2023-05-07T05:08:07;4.63;;;2.47;;
30896;SDS011;64229;52.246;21.054;2023-05-07T05:10:32;3.95;;;2.22;;
30896;SDS011;64229;52.246;21.054;2023-05-07T05:12:58;4.05;;;2.10;;
30896;SDS011;64229;52.246;21.054;2023-05-07T05:15:23;4.05;;;2.15;;
30896;SDS011;64229;52.246;21.054;2023-05-07T05:17:49;4.13;;;2.30;;
30896;SDS011;64229;52.246;21.054;2023-05-07T05:20:14;6.18;;;2.25;;
30896;SDS011;64229;52.246;21.054;2023-05-07T05:22:41;4.20;;;2.30;;
30896;SDS011;64229;52.246;21.054;2023-05-07T05:25:07;3.60;;;2.30;;
30896;SDS011;64229;52.246;21.054;2023-05-07T05:27:32;3.97;;;2.10;;
30896;SDS011;64229;52.246;21.054;2023-05-07T05:29:57;3.85;;;2.30;;
30896;SDS011;64229;52.246;21.054;2023-05-07T05:32:23;3.80;;;2.05;;
30896;SDS011;64229;52.246;21.054;2023-05-07T05:34:48;5.28;;;2.28;;
30896;SDS011;64229;52.246;21.054;2023-05-07T05:37:13;4.82;;;2.10;;
30896;SDS011;64229;52.246;21.054;2023-05-07T05:39:39;5.10;;;2.45;;
30896;SDS011;64229;52.246;21.054;2023-05-07T05:42:04;7.32;;;2.30;;
30896;SDS011;64229;52.246;21.054;2023-05-07T05:44:30;5.72;;;2.22;;
30896;SDS011;64229;52.246;21.054;2023-05-07T05:46:55;3.55;;;2.22;;
30896;SDS011;64229;52.246;21.054;2023-05-07T05:49:22;3.70;;;1.98;;
30896;SDS011;64229;52.246;21.054;2023-05-07T05:51:48;5.32;;;2.15;;
30896;SDS011;64229;52.246;21.054;2023-05-07T05:54:13;2.53;;;1.63;;
30896;SDS011;64229;52.246;21.054;2023-05-07T05:56:38;3.33;;;2.15;;
30896;SDS011;64229;52.246;21.054;2023-05-07T05:59:04;3.17;;;1.88;;
30896;SDS011;64229;52.246;21.054;2023-05-07T06:01:29;3.78;;;2.00;;
30896;SDS011;64229;52.246;21.054;2023-05-07T06:03:54;4.07;;;1.80;;
30896;SDS011;64229;52.246;21.054;2023-05-07T06:06:21;4.65;;;1.90;;
30896;SDS011;64229;52.246;21.054;2023-05-07T06:08:46;7.20;;;2.22;;
30896;SDS011;64229;52.246;21.054;2023-05-07T06:11:11;3.38;;;1.95;;
30896;SDS011;64229;52.246;21.054;2023-05-07T06:13:37;5.18;;;2.15;;
30896;SDS011;64229;52.246;21.054;2023-05-07T06:16:02;3.72;;;1.88;;
30896;SDS011;64229;52.246;21.054;2023-05-07T06:18:27;4.45;;;2.10;;
30896;SDS011;64229;52.246;21.054;2023-05-07T06:20:53;3.75;;;2.03;;
30896;SDS011;64229;52.246;21.054;2023-05-07T06:23:18;3.15;;;2.00;;
30896;SDS011;64229;52.246;21.054;2023-05-07T06:25:50;5.05;;;1.77;;
30896;SDS011;64229;52.246;21.054;2023-05-07T06:28:15;3.42;;;1.90;;
30896;SDS011;64229;52.246;21.054;2023-05-07T06:30:41;3.58;;;2.20;;
30896;SDS011;64229;52.246;21.054;2023-05-07T06:33:06;2.65;;;1.75;;
30896;SDS011;64229;52.246;21.054;2023-05-07T06:35:32;4.85;;;1.83;;
30896;SDS011;64229;52.246;21.054;2023-05-07T06:37:57;3.20;;;1.92;;
30896;SDS011;64229;52.246;21.054;2023-05-07T06:40:22;3.33;;;1.80;;
30896;SDS011;64229;52.246;21.054;2023-05-07T06:42:48;3.13;;;1.83;;
30896;SDS011;64229;52.246;21.054;2023-05-07T06:45:13;4.38;;;2.13;;
30896;SDS011;64229;52.246;21.054;2023-05-07T06:47:39;5.55;;;2.00;;
30896;SDS011;64229;52.246;21.054;2023-05-07T06:50:04;4.03;;;1.90;;
30896;SDS011;64229;52.246;21.054;2023-05-07T06:52:30;3.80;;;1.90;;
30896;SDS011;64229;52.246;21.054;2023-05-07T06:54:55;3.83;;;2.03;;
30896;SDS011;64229;52.246;21.054;2023-05-07T06:57:20;2.55;;;1.75;;
30896;SDS011;64229;52.246;21.054;2023-05-07T06:59:46;5.13;;;2.20;;
30896;SDS011;64229;52.246;21.054;2023-05-07T07:02:11;4.78;;;2.08;;
30896;SDS011;64229;52.246;21.054;2023-05-07T07:04:36;3.05;;;1.75;;
30896;SDS011;64229;52.246;21.054;2023-05-07T07:07:02;3.33;;;1.83;;
30896;SDS011;64229;52.246;21.054;2023-05-07T07:09:27;3.15;;;1.67;;
30896;SDS011;64229;52.246;21.054;2023-05-07T07:11:52;5.10;;;2.00;;
30896;SDS011;64229;52.246;21.054;2023-05-07T07:14:18;4.20;;;1.88;;
30896;SDS011;64229;52.246;21.054;2023-05-07T07:16:43;4.18;;;2.03;;
30896;SDS011;64229;52.246;21.054;2023-05-07T07:19:08;4.70;;;1.80;;
30896;SDS011;64229;52.246;21.054;2023-05-07T07:21:34;3.70;;;1.98;;
30896;SDS011;64229;52.246;21.054;2023-05-07T07:23:59;6.55;;;2.30;;
30896;SDS011;64229;52.246;21.054;2023-05-07T07:26:25;3.58;;;1.90;;
30896;SDS011;64229;52.246;21.054;2023-05-07T07:28:50;4.05;;;2.22;;
30896;SDS011;64229;52.246;21.054;2023-05-07T07:31:16;3.15;;;2.08;;
30896;SDS011;64229;52.246;21.054;2023-05-07T07:33:41;3.30;;;1.80;;
30896;SDS011;64229;52.246;21.054;2023-05-07T07:36:06;3.88;;;2.13;;
30896;SDS011;64229;52.246;21.054;2023-05-07T07:38:32;6.75;;;2.30;;
30896;SDS011;64229;52.246;21.054;2023-05-07T07:40:58;4.68;;;1.77;;
30896;SDS011;64229;52.246;21.054;2023-05-07T07:43:23;3.28;;;2.00;;
30896;SDS011;64229;52.246;21.054;2023-05-07T07:45:48;3.78;;;1.83;;
30896;SDS011;64229;52.246;21.054;2023-05-07T07:48:14;3.47;;;2.10;;
30896;SDS011;64229;52.246;21.054;2023-05-07T07:50:39;4.22;;;1.85;;
30896;SDS011;64229;52.246;21.054;2023-05-07T07:53:05;6.00;;;2.00;;
30896;SDS011;64229;52.246;21.054;2023-05-07T07:55:30;2.83;;;1.67;;
30896;SDS011;64229;52.246;21.054;2023-05-07T07:57:57;2.60;;;1.50;;
30896;SDS011;64229;52.246;21.054;2023-05-07T08:00:22;4.13;;;2.13;;
30896;SDS011;64229;52.246;21.054;2023-05-07T08:02:47;4.50;;;1.90;;
30896;SDS011;64229;52.246;21.054;2023-05-07T08:05:13;3.20;;;2.10;;
30896;SDS011;64229;52.246;21.054;2023-05-07T08:07:38;3.63;;;1.90;;
30896;SDS011;64229;52.246;21.054;2023-05-07T08:10:04;3.50;;;1.90;;
30896;SDS011;64229;52.246;21.054;2023-05-07T08:12:29;5.18;;;2.13;;
30896;SDS011;64229;52.246;21.054;2023-05-07T08:14:55;6.50;;;1.92;;
30896;SDS011;64229;52.246;21.054;2023-05-07T08:17:20;6.25;;;2.30;;
30896;SDS011;64229;52.246;21.054;2023-05-07T08:19:47;3.13;;;2.20;;
30896;SDS011;64229;52.246;21.054;2023-05-07T08:22:13;3.13;;;1.90;;
30896;SDS011;64229;52.246;21.054;2023-05-07T08:24:38;4.85;;;2.10;;
30896;SDS011;64229;52.246;21.054;2023-05-07T08:27:05;2.60;;;1.55;;
30896;SDS011;64229;52.246;21.054;2023-05-07T08:29:30;5.78;;;2.20;;
30896;SDS011;64229;52.246;21.054;2023-05-07T08:31:55;3.33;;;1.85;;
30896;SDS011;64229;52.246;21.054;2023-05-07T08:34:21;4.43;;;1.70;;
30896;SDS011;64229;52.246;21.054;2023-05-07T08:36:47;5.82;;;1.63;;
30896;SDS011;64229;52.246;21.054;2023-05-07T08:39:13;4.75;;;1.73;;
30896;SDS011;64229;52.246;21.054;2023-05-07T08:41:40;2.75;;;1.60;;
30896;SDS011;64229;52.246;21.054;2023-05-07T08:44:06;3.38;;;1.77;;
30896;SDS011;64229;52.246;21.054;2023-05-07T08:46:37;6.28;;;1.88;;
30896;SDS011;64229;52.246;21.054;2023-05-07T08:49:04;6.13;;;1.90;;
30896;SDS011;64229;52.246;21.054;2023-05-07T08:51:29;2.15;;;1.40;;
30896;SDS011;64229;52.246;21.054;2023-05-07T08:53:56;4.68;;;1.75;;
30896;SDS011;64229;52.246;21.054;2023-05-07T08:56:21;2.72;;;1.48;;
30896;SDS011;64229;52.246;21.054;2023-05-07T08:58:47;2.97;;;1.65;;
30896;SDS011;64229;52.246;21.054;2023-05-07T09:01:13;3.20;;;1.50;;
30896;SDS011;64229;52.246;21.054;2023-05-07T09:03:40;5.05;;;1.73;;
30896;SDS011;64229;52.246;21.054;2023-05-07T09:06:09;3.22;;;1.65;;
30896;SDS011;64229;52.246;21.054;2023-05-07T09:08:35;4.32;;;1.80;;
30896;SDS011;64229;52.246;21.054;2023-05-07T09:11:01;7.22;;;1.90;;
30896;SDS011;64229;52.246;21.054;2023-05-07T09:13:27;6.95;;;1.70;;
30896;SDS011;64229;52.246;21.054;2023-05-07T09:15:52;4.70;;;2.10;;
30896;SDS011;64229;52.246;21.054;2023-05-07T09:18:17;3.15;;;1.77;;
30896;SDS011;64229;52.246;21.054;2023-05-07T09:20:43;4.00;;;1.92;;
30896;SDS011;64229;52.246;21.054;2023-05-07T09:23:08;3.08;;;1.67;;
30896;SDS011;64229;52.246;21.054;2023-05-07T09:25:35;2.70;;;1.63;;
30896;SDS011;64229;52.246;21.054;2023-05-07T09:28:01;3.67;;;1.48;;
30896;SDS011;64229;52.246;21.054;2023-05-07T09:30:28;2.90;;;1.25;;
30896;SDS011;64229;52.246;21.054;2023-05-07T09:32:55;3.00;;;1.40;;
30896;SDS011;64229;52.246;21.054;2023-05-07T09:35:21;2.03;;;1.35;;
30896;SDS011;64229;52.246;21.054;2023-05-07T09:37:49;3.22;;;1.50;;
30896;SDS011;64229;52.246;21.054;2023-05-07T09:40:24;4.82;;;1.58;;
30896;SDS011;64229;52.246;21.054;2023-05-07T09:42:52;2.42;;;1.40;;
30896;SDS011;64229;52.246;21.054;2023-05-07T09:45:22;3.40;;;1.63;;
30896;SDS011;64229;52.246;21.054;2023-05-07T09:47:49;4.38;;;1.48;;
30896;SDS011;64229;52.246;21.054;2023-05-07T09:50:19;5.15;;;1.75;;
30896;SDS011;64229;52.246;21.054;2023-05-07T09:52:50;3.70;;;1.60;;
30896;SDS011;64229;52.246;21.054;2023-05-07T09:55:17;3.88;;;1.65;;
30896;SDS011;64229;52.246;21.054;2023-05-07T09:57:43;3.28;;;1.35;;
30896;SDS011;64229;52.246;21.054;2023-05-07T10:00:10;2.40;;;1.25;;
30896;SDS011;64229;52.246;21.054;2023-05-07T10:02:36;1.83;;;1.23;;
30896;SDS011;64229;52.246;21.054;2023-05-07T10:05:06;2.03;;;1.00;;
30896;SDS011;64229;52.246;21.054;2023-05-07T10:07:32;3.47;;;1.48;;
30896;SDS011;64229;52.246;21.054;2023-05-07T10:09:57;4.35;;;1.35;;
30896;SDS011;64229;52.246;21.054;2023-05-07T10:12:24;3.28;;;1.38;;
30896;SDS011;64229;52.246;21.054;2023-05-07T10:14:50;6.50;;;1.60;;
30896;SDS011;64229;52.246;21.054;2023-05-07T10:17:18;3.60;;;1.55;;
30896;SDS011;64229;52.246;21.054;2023-05-07T10:19:44;5.68;;;1.40;;
30896;SDS011;64229;52.246;21.054;2023-05-07T10:22:10;1.90;;;1.20;;
30896;SDS011;64229;52.246;21.054;2023-05-07T10:24:36;5.05;;;1.65;;
30896;SDS011;64229;52.246;21.054;2023-05-07T10:27:03;2.78;;;1.38;;
30896;SDS011;64229;52.246;21.054;2023-05-07T10:29:33;3.50;;;1.60;;
30896;SDS011;64229;52.246;21.054;2023-05-07T10:32:25;1.73;;;1.10;;
30896;SDS011;64229;52.246;21.054;2023-05-07T10:35:02;2.30;;;1.30;;
30896;SDS011;64229;52.246;21.054;2023-05-07T10:37:31;2.33;;;1.23;;
30896;SDS011;64229;52.246;21.054;2023-05-07T10:39:57;4.65;;;1.23;;
30896;SDS011;64229;52.246;21.054;2023-05-07T10:42:22;7.65;;;1.30;;
30896;SDS011;64229;52.246;21.054;2023-05-07T10:44:48;3.20;;;1.50;;
30896;SDS011;64229;52.246;21.054;2023-05-07T10:47:14;4.50;;;1.20;;
30896;SDS011;64229;52.246;21.054;2023-05-07T10:54:42;3.60;;;1.38;;
30896;SDS011;64229;52.246;21.054;2023-05-07T10:59:53;2.65;;;1.27;;
30896;SDS011;64229;52.246;21.054;2023-05-07T11:02:19;4.15;;;1.73;;
30896;SDS011;64229;52.246;21.054;2023-05-07T11:04:44;2.58;;;1.48;;
30896;SDS011;64229;52.246;21.054;2023-05-07T11:07:16;3.97;;;1.45;;
30896;SDS011;64229;52.246;21.054;2023-05-07T11:17:29;4.07;;;1.42;;
30896;SDS011;64229;52.246;21.054;2023-05-07T11:19:57;2.83;;;1.55;;
30896;SDS011;64229;52.246;21.054;2023-05-07T11:25:01;5.80;;;1.85;;
30896;SDS011;64229;52.246;21.054;2023-05-07T11:27:27;2.85;;;1.42;;
30896;SDS011;64229;52.246;21.054;2023-05-07T11:29:54;3.58;;;1.60;;
30896;SDS011;64229;52.246;21.054;2023-05-07T11:32:22;3.80;;;1.38;;
30896;SDS011;64229;52.246;21.054;2023-05-07T11:34:57;5.05;;;2.63;;
30896;SDS011;64229;52.246;21.054;2023-05-07T11:37:25;2.70;;;1.40;;
30896;SDS011;64229;52.246;21.054;2023-05-07T11:40:01;2.67;;;1.20;;
30896;SDS011;64229;52.246;21.054;2023-05-07T11:42:36;9.52;;;1.55;;
30896;SDS011;64229;52.246;21.054;2023-05-07T11:45:03;3.95;;;1.25;;
30896;SDS011;64229;52.246;21.054;2023-05-07T11:47:32;3.55;;;1.48;;
30896;SDS011;64229;52.246;21.054;2023-05-07T11:50:02;3.17;;;1.60;;
30896;SDS011;64229;52.246;21.054;2023-05-07T11:52:29;4.22;;;1.67;;
30896;SDS011;64229;52.246;21.054;2023-05-07T11:54:55;1.92;;;1.10;;
30896;SDS011;64229;52.246;21.054;2023-05-07T11:57:25;4.20;;;1.33;;
30896;SDS011;64229;52.246;21.054;2023-05-07T11:59:57;3.03;;;1.55;;
30896;SDS011;64229;52.246;21.054;2023-05-07T12:02:24;4.45;;;1.77;;
30896;SDS011;64229;52.246;21.054;2023-05-07T12:04:50;3.28;;;1.27;;
30896;SDS011;64229;52.246;21.054;2023-05-07T12:07:16;2.10;;;1.40;;
30896;SDS011;64229;52.246;21.054;2023-05-07T12:09:43;3.85;;;1.40;;
30896;SDS011;64229;52.246;21.054;2023-05-07T12:12:10;3.78;;;1.20;;
30896;SDS011;64229;52.246;21.054;2023-05-07T12:14:40;3.35;;;1.40;;
30896;SDS011;64229;52.246;21.054;2023-05-07T12:17:07;1.90;;;1.10;;
30896;SDS011;64229;52.246;21.054;2023-05-07T12:19:33;2.45;;;1.40;;
30896;SDS011;64229;52.246;21.054;2023-05-07T12:22:00;2.40;;;1.30;;
30896;SDS011;64229;52.246;21.054;2023-05-07T12:24:27;4.03;;;1.40;;
30896;SDS011;64229;52.246;21.054;2023-05-07T12:26:53;2.38;;;1.30;;
30896;SDS011;64229;52.246;21.054;2023-05-07T12:29:21;1.92;;;1.00;;
30896;SDS011;64229;52.246;21.054;2023-05-07T12:31:47;3.75;;;1.33;;
30896;SDS011;64229;52.246;21.054;2023-05-07T12:34:15;6.03;;;1.15;;
30896;SDS011;64229;52.246;21.054;2023-05-07T12:36:40;2.08;;;1.27;;
30896;SDS011;64229;52.246;21.054;2023-05-07T12:39:06;4.10;;;2.35;;
30896;SDS011;64229;52.246;21.054;2023-05-07T12:41:55;2.65;;;1.20;;
30896;SDS011;64229;52.246;21.054;2023-05-07T12:44:29;2.15;;;1.27;;
30896;SDS011;64229;52.246;21.054;2023-05-07T12:46:58;4.65;;;1.60;;
30896;SDS011;64229;52.246;21.054;2023-05-07T12:49:26;2.90;;;1.35;;
30896;SDS011;64229;52.246;21.054;2023-05-07T12:51:53;3.47;;;1.48;;
30896;SDS011;64229;52.246;21.054;2023-05-07T12:54:29;1.73;;;1.10;;
30896;SDS011;64229;52.246;21.054;2023-05-07T12:57:07;4.05;;;1.20;;
30896;SDS011;64229;52.246;21.054;2023-05-07T12:59:38;3.55;;;1.30;;
30896;SDS011;64229;52.246;21.054;2023-05-07T13:02:05;3.03;;;1.38;;
30896;SDS011;64229;52.246;21.054;2023-05-07T13:04:31;6.65;;;1.35;;
30896;SDS011;64229;52.246;21.054;2023-05-07T13:06:56;1.38;;;0.90;;
30896;SDS011;64229;52.246;21.054;2023-05-07T13:09:22;1.48;;;0.80;;
30896;SDS011;64229;52.246;21.054;2023-05-07T13:11:47;1.92;;;1.15;;
30896;SDS011;64229;52.246;21.054;2023-05-07T13:14:12;2.40;;;1.20;;
30896;SDS011;64229;52.246;21.054;2023-05-07T13:16:38;1.55;;;1.13;;
30896;SDS011;64229;52.246;21.054;2023-05-07T13:19:03;1.17;;;1.00;;
30896;SDS011;64229;52.246;21.054;2023-05-07T13:21:29;2.38;;;1.27;;
30896;SDS011;64229;52.246;21.054;2023-05-07T13:23:56;6.70;;;1.40;;
30896;SDS011;64229;52.246;21.054;2023-05-07T13:26:22;5.03;;;1.70;;
30896;SDS011;64229;52.246;21.054;2023-05-07T13:28:48;6.78;;;1.38;;
30896;SDS011;64229;52.246;21.054;2023-05-07T13:31:13;3.58;;;1.63;;
30896;SDS011;64229;52.246;21.054;2023-05-07T13:33:39;3.05;;;1.30;;
30896;SDS011;64229;52.246;21.054;2023-05-07T13:36:04;4.65;;;1.52;;
30896;SDS011;64229;52.246;21.054;2023-05-07T13:38:30;1.98;;;1.10;;
30896;SDS011;64229;52.246;21.054;2023-05-07T13:40:55;2.50;;;1.02;;
30896;SDS011;64229;52.246;21.054;2023-05-07T13:43:21;3.70;;;1.40;;
30896;SDS011;64229;52.246;21.054;2023-05-07T13:45:46;1.88;;;1.00;;
30896;SDS011;64229;52.246;21.054;2023-05-07T13:48:11;1.55;;;0.98;;
30896;SDS011;64229;52.246;21.054;2023-05-07T13:50:37;2.83;;;1.30;;
30896;SDS011;64229;52.246;21.054;2023-05-07T13:53:02;2.63;;;1.38;;
30896;SDS011;64229;52.246;21.054;2023-05-07T13:55:28;2.08;;;1.05;;
30896;SDS011;64229;52.246;21.054;2023-05-07T13:57:57;2.30;;;0.98;;
30896;SDS011;64229;52.246;21.054;2023-05-07T14:00:25;1.50;;;0.80;;
30896;SDS011;64229;52.246;21.054;2023-05-07T14:02:51;10.95;;;1.70;;
30896;SDS011;64229;52.246;21.054;2023-05-07T14:05:17;1.88;;;1.10;;
30896;SDS011;64229;52.246;21.054;2023-05-07T14:07:43;3.10;;;1.20;;
30896;SDS011;64229;52.246;21.054;2023-05-07T14:10:08;1.90;;;1.05;;
30896;SDS011;64229;52.246;21.054;2023-05-07T14:12:34;1.50;;;0.93;;
30896;SDS011;64229;52.246;21.054;2023-05-07T14:14:59;5.72;;;1.40;;
30896;SDS011;64229;52.246;21.054;2023-05-07T14:17:25;3.92;;;1.10;;
30896;SDS011;64229;52.246;21.054;2023-05-07T14:19:51;2.45;;;1.48;;
30896;SDS011;64229;52.246;21.054;2023-05-07T14:22:19;7.40;;;2.10;;
30896;SDS011;64229;52.246;21.054;2023-05-07T14:24:48;2.97;;;1.85;;
30896;SDS011;64229;52.246;21.054;2023-05-07T14:27:14;3.17;;;1.38;;
30896;SDS011;64229;52.246;21.054;2023-05-07T14:29:39;2.45;;;1.35;;
30896;SDS011;64229;52.246;21.054;2023-05-07T14:32:05;6.03;;;1.45;;
30896;SDS011;64229;52.246;21.054;2023-05-07T14:34:30;2.38;;;1.20;;
30896;SDS011;64229;52.246;21.054;2023-05-07T14:36:56;2.58;;;1.40;;
30896;SDS011;64229;52.246;21.054;2023-05-07T14:39:21;2.63;;;1.38;;
30896;SDS011;64229;52.246;21.054;2023-05-07T14:41:47;2.90;;;1.20;;
30896;SDS011;64229;52.246;21.054;2023-05-07T14:44:12;4.03;;;1.42;;
30896;SDS011;64229;52.246;21.054;2023-05-07T14:46:38;3.58;;;1.13;;
30896;SDS011;64229;52.246;21.054;2023-05-07T14:49:03;2.85;;;1.40;;
30896;SDS011;64229;52.246;21.054;2023-05-07T14:51:29;5.65;;;2.20;;
30896;SDS011;64229;52.246;21.054;2023-05-07T14:53:55;1.77;;;1.30;;
30896;SDS011;64229;52.246;21.054;2023-05-07T14:56:21;4.22;;;1.73;;
30896;SDS011;64229;52.246;21.054;2023-05-07T14:58:46;6.55;;;1.63;;
30896;SDS011;64229;52.246;21.054;2023-05-07T15:01:13;3.20;;;1.23;;
30896;SDS011;64229;52.246;21.054;2023-05-07T15:03:39;2.22;;;1.30;;
30896;SDS011;64229;52.246;21.054;2023-05-07T15:06:04;3.47;;;2.17;;
30896;SDS011;64229;52.246;21.054;2023-05-07T15:08:30;5.75;;;1.52;;
30896;SDS011;64229;52.246;21.054;2023-05-07T15:10:55;2.63;;;1.48;;
30896;SDS011;64229;52.246;21.054;2023-05-07T15:13:21;2.17;;;1.23;;
30896;SDS011;64229;52.246;21.054;2023-05-07T15:15:46;2.63;;;1.50;;
30896;SDS011;64229;52.246;21.054;2023-05-07T15:18:12;3.47;;;1.20;;
30896;SDS011;64229;52.246;21.054;2023-05-07T15:20:37;4.18;;;1.48;;
30896;SDS011;64229;52.246;21.054;2023-05-07T15:23:04;2.75;;;1.20;;
30896;SDS011;64229;52.246;21.054;2023-05-07T15:25:31;2.80;;;1.30;;
30896;SDS011;64229;52.246;21.054;2023-05-07T15:27:58;3.88;;;1.70;;
30896;SDS011;64229;52.246;21.054;2023-05-07T15:30:23;4.13;;;1.30;;
30896;SDS011;64229;52.246;21.054;2023-05-07T15:32:49;3.10;;;1.77;;
30896;SDS011;64229;52.246;21.054;2023-05-07T15:35:15;2.85;;;1.70;;
30896;SDS011;64229;52.246;21.054;2023-05-07T15:37:41;2.72;;;1.27;;
30896;SDS011;64229;52.246;21.054;2023-05-07T15:40:06;3.65;;;1.20;;
30896;SDS011;64229;52.246;21.054;2023-05-07T15:42:33;2.92;;;1.35;;
30896;SDS011;64229;52.246;21.054;2023-05-07T15:44:58;6.47;;;1.50;;
30896;SDS011;64229;52.246;21.054;2023-05-07T15:47:25;3.00;;;1.40;;
30896;SDS011;64229;52.246;21.054;2023-05-07T15:49:51;2.60;;;1.38;;
30896;SDS011;64229;52.246;21.054;2023-05-07T15:52:16;2.33;;;1.33;;
30896;SDS011;64229;52.246;21.054;2023-05-07T15:54:42;2.08;;;1.27;;
30896;SDS011;64229;52.246;21.054;2023-05-07T15:57:07;4.43;;;1.60;;
30896;SDS011;64229;52.246;21.054;2023-05-07T15:59:34;2.38;;;1.48;;
30896;SDS011;64229;52.246;21.054;2023-05-07T16:02:00;4.00;;;1.30;;
30896;SDS011;64229;52.246;21.054;2023-05-07T16:04:25;3.65;;;2.00;;
30896;SDS011;64229;52.246;21.054;2023-05-07T16:06:52;5.70;;;1.77;;
30896;SDS011;64229;52.246;21.054;2023-05-07T16:09:17;7.30;;;2.10;;
30896;SDS011;64229;52.246;21.054;2023-05-07T16:11:43;3.05;;;1.60;;
30896;SDS011;64229;52.246;21.054;2023-05-07T16:14:08;3.55;;;1.45;;
30896;SDS011;64229;52.246;21.054;2023-05-07T16:16:35;2.53;;;1.38;;
30896;SDS011;64229;52.246;21.054;2023-05-07T16:19:02;4.10;;;1.50;;
30896;SDS011;64229;52.246;21.054;2023-05-07T16:21:27;3.72;;;1.38;;
30896;SDS011;64229;52.246;21.054;2023-05-07T16:23:52;6.70;;;1.50;;
30896;SDS011;64229;52.246;21.054;2023-05-07T16:26:18;2.10;;;1.27;;
30896;SDS011;64229;52.246;21.054;2023-05-07T16:28:43;1.80;;;1.10;;
30896;SDS011;64229;52.246;21.054;2023-05-07T16:31:09;3.97;;;1.42;;
30896;SDS011;64229;52.246;21.054;2023-05-07T16:33:34;3.28;;;1.35;;
30896;SDS011;64229;52.246;21.054;2023-05-07T16:36:00;2.80;;;1.48;;
30896;SDS011;64229;52.246;21.054;2023-05-07T16:38:26;2.97;;;1.48;;
30896;SDS011;64229;52.246;21.054;2023-05-07T16:40:52;3.03;;;1.73;;
30896;SDS011;64229;52.246;21.054;2023-05-07T16:43:18;4.90;;;1.80;;
30896;SDS011;64229;52.246;21.054;2023-05-07T16:45:43;2.95;;;1.85;;
30896;SDS011;64229;52.246;21.054;2023-05-07T16:48:10;4.65;;;1.55;;
30896;SDS011;64229;52.246;21.054;2023-05-07T16:50:35;7.45;;;1.70;;
30896;SDS011;64229;52.246;21.054;2023-05-07T16:53:01;5.57;;;2.05;;
30896;SDS011;64229;52.246;21.054;2023-05-07T16:55:26;4.78;;;1.77;;
30896;SDS011;64229;52.246;21.054;2023-05-07T16:57:52;3.83;;;1.73;;
30896;SDS011;64229;52.246;21.054;2023-05-07T17:00:17;3.05;;;1.70;;
30896;SDS011;64229;52.246;21.054;2023-05-07T17:02:43;2.75;;;1.50;;
30896;SDS011;64229;52.246;21.054;2023-05-07T17:05:09;4.68;;;1.50;;
30896;SDS011;64229;52.246;21.054;2023-05-07T17:07:34;2.95;;;1.92;;
30896;SDS011;64229;52.246;21.054;2023-05-07T17:10:00;4.20;;;1.77;;
30896;SDS011;64229;52.246;21.054;2023-05-07T17:12:26;3.83;;;1.75;;
30896;SDS011;64229;52.246;21.054;2023-05-07T17:14:51;6.20;;;1.75;;
30896;SDS011;64229;52.246;21.054;2023-05-07T17:17:16;4.22;;;1.77;;
30896;SDS011;64229;52.246;21.054;2023-05-07T17:19:42;4.70;;;2.00;;
30896;SDS011;64229;52.246;21.054;2023-05-07T17:22:08;2.83;;;1.52;;
30896;SDS011;64229;52.246;21.054;2023-05-07T17:24:33;3.45;;;2.03;;
30896;SDS011;64229;52.246;21.054;2023-05-07T17:26:58;4.82;;;1.98;;
30896;SDS011;64229;52.246;21.054;2023-05-07T17:29:24;7.00;;;2.00;;
30896;SDS011;64229;52.246;21.054;2023-05-07T17:31:49;5.93;;;2.20;;
30896;SDS011;64229;52.246;21.054;2023-05-07T17:34:15;4.45;;;1.63;;
30896;SDS011;64229;52.246;21.054;2023-05-07T17:36:40;4.47;;;2.00;;
30896;SDS011;64229;52.246;21.054;2023-05-07T17:39:05;7.97;;;2.17;;
30896;SDS011;64229;52.246;21.054;2023-05-07T17:41:33;5.60;;;2.13;;
30896;SDS011;64229;52.246;21.054;2023-05-07T17:43:59;5.47;;;1.90;;
30896;SDS011;64229;52.246;21.054;2023-05-07T17:46:25;5.22;;;2.13;;
30896;SDS011;64229;52.246;21.054;2023-05-07T17:48:50;3.72;;;1.92;;
30896;SDS011;64229;52.246;21.054;2023-05-07T17:51:16;3.92;;;2.05;;
30896;SDS011;64229;52.246;21.054;2023-05-07T17:53:41;10.48;;;3.92;;
30896;SDS011;64229;52.246;21.054;2023-05-07T17:56:06;4.68;;;2.15;;
30896;SDS011;64229;52.246;21.054;2023-05-07T17:58:31;5.78;;;2.40;;
30896;SDS011;64229;52.246;21.054;2023-05-07T18:00:57;4.38;;;2.10;;
30896;SDS011;64229;52.246;21.054;2023-05-07T18:03:22;4.85;;;2.03;;
30896;SDS011;64229;52.246;21.054;2023-05-07T18:05:51;7.95;;;2.20;;
30896;SDS011;64229;52.246;21.054;2023-05-07T18:08:17;4.40;;;2.40;;
30896;SDS011;64229;52.246;21.054;2023-05-07T18:10:42;5.68;;;2.42;;
30896;SDS011;64229;52.246;21.054;2023-05-07T18:13:07;4.45;;;2.30;;
30896;SDS011;64229;52.246;21.054;2023-05-07T18:15:33;3.88;;;2.40;;
30896;SDS011;64229;52.246;21.054;2023-05-07T18:17:58;7.25;;;2.35;;
30896;SDS011;64229;52.246;21.054;2023-05-07T18:20:23;4.65;;;2.63;;
30896;SDS011;64229;52.246;21.054;2023-05-07T18:22:49;4.13;;;2.17;;
30896;SDS011;64229;52.246;21.054;2023-05-07T18:25:14;5.40;;;2.55;;
30896;SDS011;64229;52.246;21.054;2023-05-07T18:27:40;5.65;;;2.95;;
30896;SDS011;64229;52.246;21.054;2023-05-07T18:30:05;4.90;;;2.50;;
30896;SDS011;64229;52.246;21.054;2023-05-07T18:32:31;6.40;;;2.30;;
30896;SDS011;64229;52.246;21.054;2023-05-07T18:34:56;4.93;;;2.55;;
30896;SDS011;64229;52.246;21.054;2023-05-07T18:37:22;6.57;;;2.75;;
30896;SDS011;64229;52.246;21.054;2023-05-07T18:39:48;4.50;;;2.42;;
30896;SDS011;64229;52.246;21.054;2023-05-07T18:42:13;4.05;;;2.60;;
30896;SDS011;64229;52.246;21.054;2023-05-07T18:44:38;4.32;;;2.63;;
30896;SDS011;64229;52.246;21.054;2023-05-07T18:47:04;5.30;;;2.45;;
30896;SDS011;64229;52.246;21.054;2023-05-07T18:49:30;5.82;;;2.83;;
30896;SDS011;64229;52.246;21.054;2023-05-07T18:51:59;6.93;;;2.78;;
30896;SDS011;64229;52.246;21.054;2023-05-07T18:54:24;6.32;;;2.75;;
30896;SDS011;64229;52.246;21.054;2023-05-07T18:56:50;5.25;;;2.80;;
30896;SDS011;64229;52.246;21.054;2023-05-07T18:59:16;8.52;;;3.40;;
30896;SDS011;64229;52.246;21.054;2023-05-07T19:01:41;6.55;;;3.00;;
30896;SDS011;64229;52.246;21.054;2023-05-07T19:04:07;6.72;;;2.88;;
30896;SDS011;64229;52.246;21.054;2023-05-07T19:06:32;9.73;;;3.65;;
30896;SDS011;64229;52.246;21.054;2023-05-07T19:08:57;7.22;;;3.08;;